sensor_id;sensor_type;location;lat;lon;timestamp;temperature;humidity
56044;DHT22;41912;51.022;3.664;2022-11-20T00:01:16;6.90;99.90
56044;DHT22;41912;51.022;3.664;2022-11-20T00:03:42;6.80;99.90
56044;DHT22;41912;51.022;3.664;2022-11-20T00:06:10;6.80;99.90
56044;DHT22;41912;51.022;3.664;2022-11-20T00:08:36;6.80;99.90
56044;DHT22;41912;51.022;3.664;2022-11-20T00:11:23;6.90;99.90
56044;DHT22;41912;51.022;3.664;2022-11-20T00:13:51;6.90;99.90
56044;DHT22;41912;51.022;3.664;2022-11-20T00:16:19;6.90;99.90
56044;DHT22;41912;51.022;3.664;2022-11-20T00:18:45;6.90;99.90
56044;DHT22;41912;51.022;3.664;2022-11-20T00:21:14;6.90;99.90
56044;DHT22;41912;51.022;3.664;2022-11-20T00:23:40;6.90;99.90
56044;DHT22;41912;51.022;3.664;2022-11-20T00:26:09;6.90;99.90
56044;DHT22;41912;51.022;3.664;2022-11-20T00:28:35;6.90;99.90
56044;DHT22;41912;51.022;3.664;2022-11-20T00:31:02;6.90;99.90
56044;DHT22;41912;51.022;3.664;2022-11-20T00:33:28;6.90;99.90
56044;DHT22;41912;51.022;3.664;2022-11-20T00:35:59;7.00;99.90
56044;DHT22;41912;51.022;3.664;2022-11-20T00:38:25;6.90;99.90
56044;DHT22;41912;51.022;3.664;2022-11-20T00:40:58;6.90;99.90
56044;DHT22;41912;51.022;3.664;2022-11-20T00:43:25;6.90;99.90
56044;DHT22;41912;51.022;3.664;2022-11-20T00:45:51;6.90;99.90
56044;DHT22;41912;51.022;3.664;2022-11-20T00:48:20;6.90;99.90
56044;DHT22;41912;51.022;3.664;2022-11-20T00:50:46;6.90;99.90
56044;DHT22;41912;51.022;3.664;2022-11-20T00:53:12;6.90;99.90
56044;DHT22;41912;51.022;3.664;2022-11-20T00:55:37;6.90;99.90
56044;DHT22;41912;51.022;3.664;2022-11-20T00:58:03;6.90;99.90
56044;DHT22;41912;51.022;3.664;2022-11-20T01:00:28;6.90;99.90
56044;DHT22;41912;51.022;3.664;2022-11-20T01:02:55;6.90;99.90
56044;DHT22;41912;51.022;3.664;2022-11-20T01:05:21;6.90;99.90
56044;DHT22;41912;51.022;3.664;2022-11-20T01:07:46;6.90;99.90
56044;DHT22;41912;51.022;3.664;2022-11-20T01:10:12;6.90;99.90
56044;DHT22;41912;51.022;3.664;2022-11-20T01:12:38;6.90;99.90
56044;DHT22;41912;51.022;3.664;2022-11-20T01:15:03;6.90;99.90
56044;DHT22;41912;51.022;3.664;2022-11-20T01:17:31;6.90;99.90
56044;DHT22;41912;51.022;3.664;2022-11-20T01:19:56;6.90;99.90
56044;DHT22;41912;51.022;3.664;2022-11-20T01:22:22;6.90;99.90
56044;DHT22;41912;51.022;3.664;2022-11-20T01:24:48;7.00;99.90
56044;DHT22;41912;51.022;3.664;2022-11-20T01:27:13;7.00;99.90
56044;DHT22;41912;51.022;3.664;2022-11-20T01:29:39;7.00;99.90
56044;DHT22;41912;51.022;3.664;2022-11-20T01:32:04;7.00;99.90
56044;DHT22;41912;51.022;3.664;2022-11-20T01:34:30;6.90;99.90
56044;DHT22;41912;51.022;3.664;2022-11-20T01:36:56;7.00;99.90
56044;DHT22;41912;51.022;3.664;2022-11-20T01:39:24;6.90;99.90
56044;DHT22;41912;51.022;3.664;2022-11-20T01:41:51;6.90;99.90
56044;DHT22;41912;51.022;3.664;2022-11-20T01:47:33;6.90;99.90
56044;DHT22;41912;51.022;3.664;2022-11-20T01:52:43;6.90;99.90
56044;DHT22;41912;51.022;3.664;2022-11-20T01:55:15;6.90;99.90
56044;DHT22;41912;51.022;3.664;2022-11-20T01:57:44;6.90;99.90
56044;DHT22;41912;51.022;3.664;2022-11-20T02:00:13;6.90;99.90
56044;DHT22;41912;51.022;3.664;2022-11-20T02:02:42;6.90;99.90
56044;DHT22;41912;51.022;3.664;2022-11-20T02:08:16;6.90;99.90
56044;DHT22;41912;51.022;3.664;2022-11-20T02:10:42;6.90;99.90
56044;DHT22;41912;51.022;3.664;2022-11-20T02:13:08;6.90;99.90
56044;DHT22;41912;51.022;3.664;2022-11-20T02:15:53;6.90;99.90
56044;DHT22;41912;51.022;3.664;2022-11-20T02:18:20;6.90;99.90
56044;DHT22;41912;51.022;3.664;2022-11-20T02:20:49;6.90;99.90
56044;DHT22;41912;51.022;3.664;2022-11-20T02:23:39;6.90;99.90
56044;DHT22;41912;51.022;3.664;2022-11-20T02:26:11;6.90;99.90
56044;DHT22;41912;51.022;3.664;2022-11-20T02:28:38;6.90;99.90
56044;DHT22;41912;51.022;3.664;2022-11-20T02:31:04;6.90;99.90
56044;DHT22;41912;51.022;3.664;2022-11-20T02:33:29;6.90;99.90
56044;DHT22;41912;51.022;3.664;2022-11-20T02:35:55;6.90;99.90
56044;DHT22;41912;51.022;3.664;2022-11-20T02:38:21;6.90;99.90
56044;DHT22;41912;51.022;3.664;2022-11-20T02:40:46;6.90;99.90
56044;DHT22;41912;51.022;3.664;2022-11-20T02:43:12;6.90;99.90
56044;DHT22;41912;51.022;3.664;2022-11-20T02:45:38;6.90;99.90
56044;DHT22;41912;51.022;3.664;2022-11-20T02:48:05;6.90;99.90
56044;DHT22;41912;51.022;3.664;2022-11-20T02:50:31;6.90;99.90
56044;DHT22;41912;51.022;3.664;2022-11-20T02:52:56;6.90;99.90
56044;DHT22;41912;51.022;3.664;2022-11-20T02:55:22;7.00;99.90
56044;DHT22;41912;51.022;3.664;2022-11-20T02:57:47;6.90;99.90
56044;DHT22;41912;51.022;3.664;2022-11-20T03:00:13;7.00;99.90
56044;DHT22;41912;51.022;3.664;2022-11-20T03:02:39;7.00;99.90
56044;DHT22;41912;51.022;3.664;2022-11-20T03:05:05;7.00;99.90
56044;DHT22;41912;51.022;3.664;2022-11-20T03:07:30;7.00;99.90
56044;DHT22;41912;51.022;3.664;2022-11-20T03:09:56;7.00;99.90
56044;DHT22;41912;51.022;3.664;2022-11-20T03:12:22;7.00;99.90
56044;DHT22;41912;51.022;3.664;2022-11-20T03:14:47;7.00;99.90
56044;DHT22;41912;51.022;3.664;2022-11-20T03:17:13;7.00;99.90
56044;DHT22;41912;51.022;3.664;2022-11-20T03:19:38;7.00;99.90
56044;DHT22;41912;51.022;3.664;2022-11-20T03:22:04;7.00;99.90
56044;DHT22;41912;51.022;3.664;2022-11-20T03:24:29;7.00;99.90
56044;DHT22;41912;51.022;3.664;2022-11-20T03:26:55;7.00;99.90
56044;DHT22;41912;51.022;3.664;2022-11-20T03:29:21;7.00;99.90
56044;DHT22;41912;51.022;3.664;2022-11-20T03:31:46;7.00;99.90
56044;DHT22;41912;51.022;3.664;2022-11-20T03:34:12;7.00;99.90
56044;DHT22;41912;51.022;3.664;2022-11-20T03:36:39;7.00;99.90
56044;DHT22;41912;51.022;3.664;2022-11-20T03:39:05;7.00;99.90
56044;DHT22;41912;51.022;3.664;2022-11-20T03:41:35;7.00;99.90
56044;DHT22;41912;51.022;3.664;2022-11-20T03:44:02;7.00;99.90
56044;DHT22;41912;51.022;3.664;2022-11-20T03:46:29;7.00;99.90
56044;DHT22;41912;51.022;3.664;2022-11-20T03:48:55;7.00;99.90
56044;DHT22;41912;51.022;3.664;2022-11-20T03:51:23;7.00;99.90
56044;DHT22;41912;51.022;3.664;2022-11-20T03:53:50;7.00;99.90
56044;DHT22;41912;51.022;3.664;2022-11-20T03:56:18;7.00;99.90
56044;DHT22;41912;51.022;3.664;2022-11-20T03:58:44;7.00;99.90
56044;DHT22;41912;51.022;3.664;2022-11-20T04:01:13;7.00;99.90
56044;DHT22;41912;51.022;3.664;2022-11-20T04:03:40;7.00;99.90
56044;DHT22;41912;51.022;3.664;2022-11-20T04:06:20;7.00;99.90
56044;DHT22;41912;51.022;3.664;2022-11-20T04:08:46;7.00;99.90
56044;DHT22;41912;51.022;3.664;2022-11-20T04:11:29;7.00;99.90
56044;DHT22;41912;51.022;3.664;2022-11-20T04:13:57;7.00;99.90
56044;DHT22;41912;51.022;3.664;2022-11-20T04:16:24;7.00;99.90
56044;DHT22;41912;51.022;3.664;2022-11-20T04:18:55;7.00;99.90
56044;DHT22;41912;51.022;3.664;2022-11-20T04:21:21;7.00;99.90
56044;DHT22;41912;51.022;3.664;2022-11-20T04:23:46;7.00;99.90
56044;DHT22;41912;51.022;3.664;2022-11-20T04:26:12;7.00;99.90
56044;DHT22;41912;51.022;3.664;2022-11-20T04:28:39;7.00;99.90
56044;DHT22;41912;51.022;3.664;2022-11-20T04:31:13;7.00;99.90
56044;DHT22;41912;51.022;3.664;2022-11-20T04:33:40;7.00;99.90
56044;DHT22;41912;51.022;3.664;2022-11-20T04:36:10;7.00;99.90
56044;DHT22;41912;51.022;3.664;2022-11-20T04:38:37;7.00;99.90
56044;DHT22;41912;51.022;3.664;2022-11-20T04:41:05;7.00;99.90
56044;DHT22;41912;51.022;3.664;2022-11-20T04:43:31;7.10;99.90
56044;DHT22;41912;51.022;3.664;2022-11-20T04:45:58;7.00;99.90
56044;DHT22;41912;51.022;3.664;2022-11-20T04:48:25;7.00;99.90
56044;DHT22;41912;51.022;3.664;2022-11-20T04:50:51;7.10;99.90
56044;DHT22;41912;51.022;3.664;2022-11-20T04:53:17;7.10;99.90
56044;DHT22;41912;51.022;3.664;2022-11-20T04:55:43;7.10;99.90
56044;DHT22;41912;51.022;3.664;2022-11-20T04:58:08;7.10;99.90
56044;DHT22;41912;51.022;3.664;2022-11-20T05:00:34;7.10;99.90
56044;DHT22;41912;51.022;3.664;2022-11-20T05:03:00;7.10;99.90
56044;DHT22;41912;51.022;3.664;2022-11-20T05:05:25;7.00;99.90
56044;DHT22;41912;51.022;3.664;2022-11-20T05:07:51;7.10;99.90
56044;DHT22;41912;51.022;3.664;2022-11-20T05:10:17;7.10;99.90
56044;DHT22;41912;51.022;3.664;2022-11-20T05:12:42;7.10;99.90
56044;DHT22;41912;51.022;3.664;2022-11-20T05:15:08;7.00;99.90
56044;DHT22;41912;51.022;3.664;2022-11-20T05:17:34;7.00;99.90
56044;DHT22;41912;51.022;3.664;2022-11-20T05:19:59;7.00;99.90
56044;DHT22;41912;51.022;3.664;2022-11-20T05:22:25;7.10;99.90
56044;DHT22;41912;51.022;3.664;2022-11-20T05:24:51;7.10;99.90
56044;DHT22;41912;51.022;3.664;2022-11-20T05:27:16;7.00;99.90
56044;DHT22;41912;51.022;3.664;2022-11-20T05:29:42;7.10;99.90
56044;DHT22;41912;51.022;3.664;2022-11-20T05:32:08;7.10;99.90
56044;DHT22;41912;51.022;3.664;2022-11-20T05:34:35;7.10;99.90
56044;DHT22;41912;51.022;3.664;2022-11-20T05:37:02;7.00;99.90
56044;DHT22;41912;51.022;3.664;2022-11-20T05:39:28;7.00;99.90
56044;DHT22;41912;51.022;3.664;2022-11-20T05:41:54;7.00;99.90
56044;DHT22;41912;51.022;3.664;2022-11-20T05:44:39;7.00;99.90
56044;DHT22;41912;51.022;3.664;2022-11-20T05:47:05;7.10;99.90
56044;DHT22;41912;51.022;3.664;2022-11-20T05:49:31;7.10;99.90
56044;DHT22;41912;51.022;3.664;2022-11-20T05:51:56;7.10;99.90
56044;DHT22;41912;51.022;3.664;2022-11-20T05:54:22;7.10;99.90
56044;DHT22;41912;51.022;3.664;2022-11-20T05:56:48;7.10;99.90
56044;DHT22;41912;51.022;3.664;2022-11-20T05:59:13;7.10;99.90
56044;DHT22;41912;51.022;3.664;2022-11-20T06:01:39;7.10;99.90
56044;DHT22;41912;51.022;3.664;2022-11-20T06:04:04;7.10;99.90
56044;DHT22;41912;51.022;3.664;2022-11-20T06:06:30;7.10;99.90
56044;DHT22;41912;51.022;3.664;2022-11-20T06:08:56;7.10;99.90
56044;DHT22;41912;51.022;3.664;2022-11-20T06:11:24;7.10;99.90
56044;DHT22;41912;51.022;3.664;2022-11-20T06:13:50;7.10;99.90
56044;DHT22;41912;51.022;3.664;2022-11-20T06:16:17;7.10;99.90
56044;DHT22;41912;51.022;3.664;2022-11-20T06:18:44;7.20;99.90
56044;DHT22;41912;51.022;3.664;2022-11-20T06:21:18;7.20;99.90
56044;DHT22;41912;51.022;3.664;2022-11-20T06:23:44;7.20;99.90
56044;DHT22;41912;51.022;3.664;2022-11-20T06:26:13;7.20;99.90
56044;DHT22;41912;51.022;3.664;2022-11-20T06:28:39;7.20;99.90
56044;DHT22;41912;51.022;3.664;2022-11-20T06:31:07;7.20;99.90
56044;DHT22;41912;51.022;3.664;2022-11-20T06:33:33;7.20;99.90
56044;DHT22;41912;51.022;3.664;2022-11-20T06:36:00;7.20;99.90
56044;DHT22;41912;51.022;3.664;2022-11-20T06:38:26;7.20;99.90
56044;DHT22;41912;51.022;3.664;2022-11-20T06:40:52;7.20;99.90
56044;DHT22;41912;51.022;3.664;2022-11-20T06:43:18;7.20;99.90
56044;DHT22;41912;51.022;3.664;2022-11-20T06:45:44;7.20;99.90
56044;DHT22;41912;51.022;3.664;2022-11-20T06:48:09;7.20;99.90
56044;DHT22;41912;51.022;3.664;2022-11-20T06:50:36;7.20;99.90
56044;DHT22;41912;51.022;3.664;2022-11-20T06:53:03;7.30;99.90
56044;DHT22;41912;51.022;3.664;2022-11-20T06:55:30;7.30;99.90
56044;DHT22;41912;51.022;3.664;2022-11-20T06:57:59;7.30;99.90
56044;DHT22;41912;51.022;3.664;2022-11-20T07:00:24;7.30;99.90
56044;DHT22;41912;51.022;3.664;2022-11-20T07:02:50;7.30;99.90
56044;DHT22;41912;51.022;3.664;2022-11-20T07:05:16;7.30;99.90
56044;DHT22;41912;51.022;3.664;2022-11-20T07:07:42;7.30;99.90
56044;DHT22;41912;51.022;3.664;2022-11-20T07:10:08;7.30;99.90
56044;DHT22;41912;51.022;3.664;2022-11-20T07:12:34;7.30;99.90
56044;DHT22;41912;51.022;3.664;2022-11-20T07:15:00;7.30;99.90
56044;DHT22;41912;51.022;3.664;2022-11-20T07:17:25;7.30;99.90
56044;DHT22;41912;51.022;3.664;2022-11-20T07:19:51;7.30;99.90
56044;DHT22;41912;51.022;3.664;2022-11-20T07:22:16;7.30;99.90
56044;DHT22;41912;51.022;3.664;2022-11-20T07:24:42;7.30;99.90
56044;DHT22;41912;51.022;3.664;2022-11-20T07:27:08;7.30;99.90
56044;DHT22;41912;51.022;3.664;2022-11-20T07:29:33;7.40;99.90
56044;DHT22;41912;51.022;3.664;2022-11-20T07:31:59;7.40;99.90
56044;DHT22;41912;51.022;3.664;2022-11-20T07:34:24;7.40;99.90
56044;DHT22;41912;51.022;3.664;2022-11-20T07:36:50;7.40;99.90
56044;DHT22;41912;51.022;3.664;2022-11-20T07:39:16;7.40;99.90
56044;DHT22;41912;51.022;3.664;2022-11-20T07:41:41;7.40;99.90
56044;DHT22;41912;51.022;3.664;2022-11-20T07:44:07;7.40;99.90
56044;DHT22;41912;51.022;3.664;2022-11-20T07:46:32;7.40;99.90
56044;DHT22;41912;51.022;3.664;2022-11-20T07:48:58;7.40;99.90
56044;DHT22;41912;51.022;3.664;2022-11-20T07:51:23;7.50;99.90
56044;DHT22;41912;51.022;3.664;2022-11-20T07:53:52;7.50;99.90
56044;DHT22;41912;51.022;3.664;2022-11-20T07:56:17;7.50;99.90
56044;DHT22;41912;51.022;3.664;2022-11-20T07:58:43;7.40;99.90
56044;DHT22;41912;51.022;3.664;2022-11-20T08:01:08;7.50;99.90
56044;DHT22;41912;51.022;3.664;2022-11-20T08:03:34;7.50;99.90
56044;DHT22;41912;51.022;3.664;2022-11-20T08:06:03;7.50;99.90
56044;DHT22;41912;51.022;3.664;2022-11-20T08:08:29;7.50;99.90
56044;DHT22;41912;51.022;3.664;2022-11-20T08:10:57;7.50;99.90
56044;DHT22;41912;51.022;3.664;2022-11-20T08:13:43;7.60;99.90
56044;DHT22;41912;51.022;3.664;2022-11-20T08:16:27;7.50;99.90
56044;DHT22;41912;51.022;3.664;2022-11-20T08:18:53;7.60;99.90
56044;DHT22;41912;51.022;3.664;2022-11-20T08:21:19;7.60;99.90
56044;DHT22;41912;51.022;3.664;2022-11-20T08:23:44;7.60;99.90
56044;DHT22;41912;51.022;3.664;2022-11-20T08:26:10;7.50;99.90
56044;DHT22;41912;51.022;3.664;2022-11-20T08:28:35;7.60;99.90
56044;DHT22;41912;51.022;3.664;2022-11-20T08:31:02;7.60;99.90
56044;DHT22;41912;51.022;3.664;2022-11-20T08:33:28;7.60;99.90
56044;DHT22;41912;51.022;3.664;2022-11-20T08:35:59;7.60;99.90
56044;DHT22;41912;51.022;3.664;2022-11-20T08:38:25;7.70;99.90
56044;DHT22;41912;51.022;3.664;2022-11-20T08:40:51;7.60;99.90
56044;DHT22;41912;51.022;3.664;2022-11-20T08:43:35;7.60;99.90
56044;DHT22;41912;51.022;3.664;2022-11-20T08:46:00;7.70;99.90
56044;DHT22;41912;51.022;3.664;2022-11-20T08:48:26;7.70;99.90
56044;DHT22;41912;51.022;3.664;2022-11-20T08:50:52;7.70;99.90
56044;DHT22;41912;51.022;3.664;2022-11-20T08:53:17;7.70;99.90
56044;DHT22;41912;51.022;3.664;2022-11-20T08:55:43;7.70;99.90
56044;DHT22;41912;51.022;3.664;2022-11-20T08:58:08;7.70;99.90
56044;DHT22;41912;51.022;3.664;2022-11-20T09:00:34;7.70;99.90
56044;DHT22;41912;51.022;3.664;2022-11-20T09:03:00;7.80;99.90
56044;DHT22;41912;51.022;3.664;2022-11-20T09:05:26;7.80;99.90
56044;DHT22;41912;51.022;3.664;2022-11-20T09:07:56;7.80;99.90
56044;DHT22;41912;51.022;3.664;2022-11-20T09:10:22;7.80;99.90
56044;DHT22;41912;51.022;3.664;2022-11-20T09:12:54;7.80;99.90
56044;DHT22;41912;51.022;3.664;2022-11-20T09:15:20;7.80;99.90
56044;DHT22;41912;51.022;3.664;2022-11-20T09:17:59;7.80;99.90
56044;DHT22;41912;51.022;3.664;2022-11-20T09:20:26;7.90;99.90
56044;DHT22;41912;51.022;3.664;2022-11-20T09:22:54;7.90;99.90
56044;DHT22;41912;51.022;3.664;2022-11-20T09:25:20;7.90;99.90
56044;DHT22;41912;51.022;3.664;2022-11-20T09:27:45;8.00;99.90
56044;DHT22;41912;51.022;3.664;2022-11-20T09:30:13;8.00;99.90
56044;DHT22;41912;51.022;3.664;2022-11-20T09:32:39;8.00;99.90
56044;DHT22;41912;51.022;3.664;2022-11-20T09:35:05;8.10;99.90
56044;DHT22;41912;51.022;3.664;2022-11-20T09:37:30;8.10;99.90
56044;DHT22;41912;51.022;3.664;2022-11-20T09:39:56;8.10;99.90
56044;DHT22;41912;51.022;3.664;2022-11-20T09:48:00;8.20;99.90
56044;DHT22;41912;51.022;3.664;2022-11-20T09:50:39;8.30;99.90
56044;DHT22;41912;51.022;3.664;2022-11-20T09:53:34;8.30;99.90
56044;DHT22;41912;51.022;3.664;2022-11-20T09:56:03;8.30;99.90
56044;DHT22;41912;51.022;3.664;2022-11-20T09:58:42;8.30;99.90
56044;DHT22;41912;51.022;3.664;2022-11-20T10:01:16;8.40;99.90
56044;DHT22;41912;51.022;3.664;2022-11-20T10:03:56;8.40;99.90
56044;DHT22;41912;51.022;3.664;2022-11-20T10:06:31;8.50;99.90
56044;DHT22;41912;51.022;3.664;2022-11-20T10:17:48;8.70;99.90
56044;DHT22;41912;51.022;3.664;2022-11-20T10:25:36;8.70;99.90
56044;DHT22;41912;51.022;3.664;2022-11-20T10:30:43;8.80;99.90
56044;DHT22;41912;51.022;3.664;2022-11-20T10:33:19;8.80;99.90
56044;DHT22;41912;51.022;3.664;2022-11-20T10:39:00;8.80;99.90
56044;DHT22;41912;51.022;3.664;2022-11-20T10:41:35;8.80;99.90
56044;DHT22;41912;51.022;3.664;2022-11-20T10:44:20;8.80;99.90
56044;DHT22;41912;51.022;3.664;2022-11-20T10:47:08;8.90;99.90
56044;DHT22;41912;51.022;3.664;2022-11-20T10:49:35;8.90;99.90
56044;DHT22;41912;51.022;3.664;2022-11-20T11:00:14;9.10;99.90
56044;DHT22;41912;51.022;3.664;2022-11-20T11:02:51;9.10;99.90
56044;DHT22;41912;51.022;3.664;2022-11-20T11:07:47;9.10;99.90
56044;DHT22;41912;51.022;3.664;2022-11-20T11:13:03;9.20;99.90
56044;DHT22;41912;51.022;3.664;2022-11-20T11:15:40;9.20;99.90
56044;DHT22;41912;51.022;3.664;2022-11-20T11:18:10;9.30;99.90
56044;DHT22;41912;51.022;3.664;2022-11-20T11:20:37;9.20;99.90
56044;DHT22;41912;51.022;3.664;2022-11-20T11:23:03;9.20;99.90
56044;DHT22;41912;51.022;3.664;2022-11-20T11:25:34;9.20;99.90
56044;DHT22;41912;51.022;3.664;2022-11-20T11:28:19;9.30;99.90
56044;DHT22;41912;51.022;3.664;2022-11-20T11:30:45;9.30;99.90
56044;DHT22;41912;51.022;3.664;2022-11-20T11:33:39;9.30;99.90
56044;DHT22;41912;51.022;3.664;2022-11-20T11:36:17;9.30;99.90
56044;DHT22;41912;51.022;3.664;2022-11-20T11:38:44;9.30;99.90
56044;DHT22;41912;51.022;3.664;2022-11-20T11:41:15;9.30;99.90
56044;DHT22;41912;51.022;3.664;2022-11-20T11:43:52;9.30;99.90
56044;DHT22;41912;51.022;3.664;2022-11-20T11:46:36;9.30;99.90
56044;DHT22;41912;51.022;3.664;2022-11-20T11:54:57;9.30;99.90
56044;DHT22;41912;51.022;3.664;2022-11-20T12:00:32;9.20;99.90
56044;DHT22;41912;51.022;3.664;2022-11-20T12:03:14;9.20;99.90
56044;DHT22;41912;51.022;3.664;2022-11-20T12:05:49;9.20;99.90
56044;DHT22;41912;51.022;3.664;2022-11-20T12:08:39;9.20;99.90
56044;DHT22;41912;51.022;3.664;2022-11-20T12:11:16;9.20;99.90
56044;DHT22;41912;51.022;3.664;2022-11-20T12:16:35;9.20;99.90
56044;DHT22;41912;51.022;3.664;2022-11-20T12:19:02;9.20;99.90
56044;DHT22;41912;51.022;3.664;2022-11-20T12:24:22;9.20;99.90
56044;DHT22;41912;51.022;3.664;2022-11-20T12:37:33;9.20;99.90
56044;DHT22;41912;51.022;3.664;2022-11-20T12:40:24;9.20;99.90
56044;DHT22;41912;51.022;3.664;2022-11-20T12:57:37;9.20;99.90
56044;DHT22;41912;51.022;3.664;2022-11-20T13:05:37;9.30;99.90
56044;DHT22;41912;51.022;3.664;2022-11-20T13:08:18;9.30;99.90
56044;DHT22;41912;51.022;3.664;2022-11-20T13:10:56;9.30;99.90
56044;DHT22;41912;51.022;3.664;2022-11-20T13:14:00;9.30;99.90
56044;DHT22;41912;51.022;3.664;2022-11-20T13:18:50;9.30;99.90
56044;DHT22;41912;51.022;3.664;2022-11-20T13:21:19;9.30;99.90
56044;DHT22;41912;51.022;3.664;2022-11-20T13:23:46;9.40;99.90
56044;DHT22;41912;51.022;3.664;2022-11-20T13:26:20;9.30;99.90
56044;DHT22;41912;51.022;3.664;2022-11-20T13:28:58;9.30;99.90
56044;DHT22;41912;51.022;3.664;2022-11-20T13:31:31;9.30;99.90
56044;DHT22;41912;51.022;3.664;2022-11-20T13:33:59;9.30;99.90
56044;DHT22;41912;51.022;3.664;2022-11-20T13:36:27;9.40;99.90
56044;DHT22;41912;51.022;3.664;2022-11-20T13:38:56;9.40;99.90
56044;DHT22;41912;51.022;3.664;2022-11-20T13:46:45;9.40;99.90
56044;DHT22;41912;51.022;3.664;2022-11-20T13:49:33;9.40;99.90
56044;DHT22;41912;51.022;3.664;2022-11-20T14:00:25;9.40;99.90
56044;DHT22;41912;51.022;3.664;2022-11-20T14:05:37;9.50;99.90
56044;DHT22;41912;51.022;3.664;2022-11-20T14:08:06;9.50;99.90
56044;DHT22;41912;51.022;3.664;2022-11-20T14:10:37;9.60;99.90
56044;DHT22;41912;51.022;3.664;2022-11-20T14:13:20;9.60;99.90
56044;DHT22;41912;51.022;3.664;2022-11-20T14:15:46;9.70;99.90
56044;DHT22;41912;51.022;3.664;2022-11-20T14:18:20;9.70;99.90
56044;DHT22;41912;51.022;3.664;2022-11-20T14:20:45;9.80;99.90
56044;DHT22;41912;51.022;3.664;2022-11-20T14:23:11;9.90;99.90
56044;DHT22;41912;51.022;3.664;2022-11-20T14:25:42;9.90;99.90
56044;DHT22;41912;51.022;3.664;2022-11-20T14:28:28;10.00;99.90
56044;DHT22;41912;51.022;3.664;2022-11-20T14:30:54;10.00;99.90
56044;DHT22;41912;51.022;3.664;2022-11-20T14:33:21;10.10;99.90
56044;DHT22;41912;51.022;3.664;2022-11-20T14:35:52;10.10;99.90
56044;DHT22;41912;51.022;3.664;2022-11-20T14:38:29;10.10;99.90
56044;DHT22;41912;51.022;3.664;2022-11-20T14:41:16;10.20;99.90
56044;DHT22;41912;51.022;3.664;2022-11-20T14:43:45;10.20;99.90
56044;DHT22;41912;51.022;3.664;2022-11-20T14:46:12;10.30;99.90
56044;DHT22;41912;51.022;3.664;2022-11-20T14:48:45;10.40;99.90
56044;DHT22;41912;51.022;3.664;2022-11-20T14:51:22;10.50;99.90
56044;DHT22;41912;51.022;3.664;2022-11-20T14:53:48;10.50;99.90
56044;DHT22;41912;51.022;3.664;2022-11-20T14:56:21;10.40;99.90
56044;DHT22;41912;51.022;3.664;2022-11-20T14:58:58;10.40;99.90
56044;DHT22;41912;51.022;3.664;2022-11-20T15:01:31;10.40;99.90
56044;DHT22;41912;51.022;3.664;2022-11-20T15:04:17;10.40;99.90
56044;DHT22;41912;51.022;3.664;2022-11-20T15:06:51;10.40;99.90
56044;DHT22;41912;51.022;3.664;2022-11-20T15:09:16;10.30;99.90
56044;DHT22;41912;51.022;3.664;2022-11-20T15:11:55;10.30;99.90
56044;DHT22;41912;51.022;3.664;2022-11-20T15:14:21;10.40;99.90
56044;DHT22;41912;51.022;3.664;2022-11-20T15:16:48;10.30;99.90
56044;DHT22;41912;51.022;3.664;2022-11-20T15:19:19;10.40;99.90
56044;DHT22;41912;51.022;3.664;2022-11-20T15:21:45;10.40;99.90
56044;DHT22;41912;51.022;3.664;2022-11-20T15:24:11;10.40;99.90
56044;DHT22;41912;51.022;3.664;2022-11-20T15:26:38;10.40;99.90
56044;DHT22;41912;51.022;3.664;2022-11-20T15:29:11;10.40;99.90
56044;DHT22;41912;51.022;3.664;2022-11-20T15:31:37;10.40;99.90
56044;DHT22;41912;51.022;3.664;2022-11-20T15:34:10;10.30;99.90
56044;DHT22;41912;51.022;3.664;2022-11-20T15:36:36;10.40;99.90
56044;DHT22;41912;51.022;3.664;2022-11-20T15:39:02;10.30;99.90
56044;DHT22;41912;51.022;3.664;2022-11-20T15:41:28;10.30;99.90
56044;DHT22;41912;51.022;3.664;2022-11-20T15:43:53;10.20;99.90
56044;DHT22;41912;51.022;3.664;2022-11-20T15:46:26;10.20;99.90
56044;DHT22;41912;51.022;3.664;2022-11-20T15:48:57;10.10;99.90
56044;DHT22;41912;51.022;3.664;2022-11-20T15:51:33;10.10;99.90
56044;DHT22;41912;51.022;3.664;2022-11-20T15:53:59;10.10;99.90
56044;DHT22;41912;51.022;3.664;2022-11-20T15:56:25;10.10;99.90
56044;DHT22;41912;51.022;3.664;2022-11-20T15:58:52;10.10;99.90
56044;DHT22;41912;51.022;3.664;2022-11-20T16:01:20;10.10;99.90
56044;DHT22;41912;51.022;3.664;2022-11-20T16:03:46;10.20;99.90
56044;DHT22;41912;51.022;3.664;2022-11-20T16:06:12;10.10;99.90
56044;DHT22;41912;51.022;3.664;2022-11-20T16:08:38;10.10;99.90
56044;DHT22;41912;51.022;3.664;2022-11-20T16:11:04;10.20;99.90
56044;DHT22;41912;51.022;3.664;2022-11-20T16:13:31;10.20;99.90
56044;DHT22;41912;51.022;3.664;2022-11-20T16:16:26;10.20;99.90
56044;DHT22;41912;51.022;3.664;2022-11-20T16:18:54;10.20;99.90
56044;DHT22;41912;51.022;3.664;2022-11-20T16:21:19;10.20;99.90
56044;DHT22;41912;51.022;3.664;2022-11-20T16:23:45;10.20;99.90
56044;DHT22;41912;51.022;3.664;2022-11-20T16:26:17;10.20;99.90
56044;DHT22;41912;51.022;3.664;2022-11-20T16:28:44;10.20;99.90
56044;DHT22;41912;51.022;3.664;2022-11-20T16:31:11;10.20;99.90
56044;DHT22;41912;51.022;3.664;2022-11-20T16:33:37;10.20;99.90
56044;DHT22;41912;51.022;3.664;2022-11-20T16:36:07;10.20;99.90
56044;DHT22;41912;51.022;3.664;2022-11-20T16:38:33;10.20;99.90
56044;DHT22;41912;51.022;3.664;2022-11-20T16:41:02;10.10;99.90
56044;DHT22;41912;51.022;3.664;2022-11-20T16:43:28;10.10;99.90
56044;DHT22;41912;51.022;3.664;2022-11-20T16:45:54;10.10;99.90
56044;DHT22;41912;51.022;3.664;2022-11-20T16:48:20;10.10;99.90
56044;DHT22;41912;51.022;3.664;2022-11-20T16:50:50;10.20;99.90
56044;DHT22;41912;51.022;3.664;2022-11-20T16:53:20;10.20;99.90
56044;DHT22;41912;51.022;3.664;2022-11-20T16:55:47;10.20;99.90
56044;DHT22;41912;51.022;3.664;2022-11-20T16:58:13;10.20;99.90
56044;DHT22;41912;51.022;3.664;2022-11-20T17:00:40;10.20;99.90
56044;DHT22;41912;51.022;3.664;2022-11-20T17:03:06;10.20;99.90
56044;DHT22;41912;51.022;3.664;2022-11-20T17:05:32;10.20;99.90
56044;DHT22;41912;51.022;3.664;2022-11-20T17:07:59;10.20;99.90
56044;DHT22;41912;51.022;3.664;2022-11-20T17:10:25;10.20;99.90
56044;DHT22;41912;51.022;3.664;2022-11-20T17:12:50;10.20;99.90
56044;DHT22;41912;51.022;3.664;2022-11-20T17:15:16;10.20;99.90
56044;DHT22;41912;51.022;3.664;2022-11-20T17:17:42;10.10;99.90
56044;DHT22;41912;51.022;3.664;2022-11-20T17:20:09;10.10;99.90
56044;DHT22;41912;51.022;3.664;2022-11-20T17:22:34;10.20;99.90
56044;DHT22;41912;51.022;3.664;2022-11-20T17:25:00;10.10;99.90
56044;DHT22;41912;51.022;3.664;2022-11-20T17:27:26;10.10;99.90
56044;DHT22;41912;51.022;3.664;2022-11-20T17:29:51;10.00;99.90
56044;DHT22;41912;51.022;3.664;2022-11-20T17:32:19;10.00;99.90
56044;DHT22;41912;51.022;3.664;2022-11-20T17:34:45;10.00;99.90
56044;DHT22;41912;51.022;3.664;2022-11-20T17:37:10;10.00;99.90
56044;DHT22;41912;51.022;3.664;2022-11-20T17:39:36;10.00;99.90
56044;DHT22;41912;51.022;3.664;2022-11-20T17:42:02;10.00;99.90
56044;DHT22;41912;51.022;3.664;2022-11-20T17:44:46;10.00;99.90